sensor_id;sensor_type;location;lat;lon;timestamp;P1;durP1;ratioP1;P2;durP2;ratioP2
54460;SDS011;40371;49.414;11.010;2023-02-23T00:01:17;12.23;;;8.73;;
54460;SDS011;40371;49.414;11.010;2023-02-23T00:03:46;10.13;;;8.07;;
54460;SDS011;40371;49.414;11.010;2023-02-23T00:06:13;11.53;;;8.43;;
54460;SDS011;40371;49.414;11.010;2023-02-23T00:08:40;9.40;;;8.40;;
54460;SDS011;40371;49.414;11.010;2023-02-23T00:11:07;8.80;;;7.90;;
54460;SDS011;40371;49.414;11.010;2023-02-23T00:13:37;10.23;;;8.53;;
54460;SDS011;40371;49.414;11.010;2023-02-23T00:16:07;10.90;;;9.00;;
54460;SDS011;40371;49.414;11.010;2023-02-23T00:18:36;11.40;;;8.10;;
54460;SDS011;40371;49.414;11.010;2023-02-23T00:21:13;10.53;;;7.70;;
54460;SDS011;40371;49.414;11.010;2023-02-23T00:23:50;9.83;;;7.87;;
54460;SDS011;40371;49.414;11.010;2023-02-23T00:26:18;8.40;;;7.60;;
54460;SDS011;40371;49.414;11.010;2023-02-23T00:28:51;10.97;;;8.33;;
54460;SDS011;40371;49.414;11.010;2023-02-23T00:31:18;8.60;;;7.30;;
54460;SDS011;40371;49.414;11.010;2023-02-23T00:33:50;11.50;;;8.30;;
54460;SDS011;40371;49.414;11.010;2023-02-23T00:36:18;9.00;;;8.03;;
54460;SDS011;40371;49.414;11.010;2023-02-23T00:38:45;11.83;;;8.43;;
54460;SDS011;40371;49.414;11.010;2023-02-23T00:41:12;8.20;;;7.40;;
54460;SDS011;40371;49.414;11.010;2023-02-23T00:43:44;10.03;;;7.97;;
54460;SDS011;40371;49.414;11.010;2023-02-23T00:46:17;9.87;;;7.73;;
54460;SDS011;40371;49.414;11.010;2023-02-23T00:48:45;8.60;;;7.53;;
54460;SDS011;40371;49.414;11.010;2023-02-23T00:51:12;8.67;;;7.70;;
54460;SDS011;40371;49.414;11.010;2023-02-23T00:53:39;10.07;;;8.00;;
54460;SDS011;40371;49.414;11.010;2023-02-23T00:56:06;30.90;;;26.10;;
54460;SDS011;40371;49.414;11.010;2023-02-23T00:58:35;13.90;;;12.50;;
54460;SDS011;40371;49.414;11.010;2023-02-23T01:01:04;13.77;;;11.50;;
54460;SDS011;40371;49.414;11.010;2023-02-23T01:03:30;20.33;;;17.10;;
54460;SDS011;40371;49.414;11.010;2023-02-23T01:05:59;27.73;;;20.60;;
54460;SDS011;40371;49.414;11.010;2023-02-23T01:08:33;26.53;;;17.60;;
54460;SDS011;40371;49.414;11.010;2023-02-23T01:11:07;23.80;;;20.53;;
54460;SDS011;40371;49.414;11.010;2023-02-23T01:13:34;61.87;;;47.47;;
54460;SDS011;40371;49.414;11.010;2023-02-23T01:16:10;19.00;;;16.07;;
54460;SDS011;40371;49.414;11.010;2023-02-23T01:18:38;10.67;;;8.50;;
54460;SDS011;40371;49.414;11.010;2023-02-23T01:21:05;10.60;;;7.17;;
54460;SDS011;40371;49.414;11.010;2023-02-23T01:23:38;7.50;;;6.67;;
54460;SDS011;40371;49.414;11.010;2023-02-23T01:26:04;13.27;;;7.47;;
54460;SDS011;40371;49.414;11.010;2023-02-23T01:28:30;8.03;;;7.27;;
54460;SDS011;40371;49.414;11.010;2023-02-23T01:30:56;7.77;;;6.47;;
54460;SDS011;40371;49.414;11.010;2023-02-23T01:33:21;10.30;;;7.23;;
54460;SDS011;40371;49.414;11.010;2023-02-23T01:35:59;8.13;;;7.23;;
54460;SDS011;40371;49.414;11.010;2023-02-23T01:38:25;9.23;;;7.13;;
54460;SDS011;40371;49.414;11.010;2023-02-23T01:40:51;8.33;;;6.83;;
54460;SDS011;40371;49.414;11.010;2023-02-23T01:43:17;8.73;;;7.40;;
54460;SDS011;40371;49.414;11.010;2023-02-23T01:45:54;7.63;;;6.80;;
54460;SDS011;40371;49.414;11.010;2023-02-23T01:48:26;8.00;;;7.17;;
54460;SDS011;40371;49.414;11.010;2023-02-23T01:53:39;8.37;;;6.90;;
54460;SDS011;40371;49.414;11.010;2023-02-23T01:56:09;8.33;;;7.50;;
54460;SDS011;40371;49.414;11.010;2023-02-23T01:58:43;9.60;;;7.30;;
54460;SDS011;40371;49.414;11.010;2023-02-23T02:01:11;7.97;;;7.17;;
54460;SDS011;40371;49.414;11.010;2023-02-23T02:03:42;8.60;;;7.50;;
54460;SDS011;40371;49.414;11.010;2023-02-23T02:06:13;10.03;;;6.90;;
54460;SDS011;40371;49.414;11.010;2023-02-23T02:08:44;9.40;;;7.13;;
54460;SDS011;40371;49.414;11.010;2023-02-23T02:11:14;9.13;;;7.10;;
54460;SDS011;40371;49.414;11.010;2023-02-23T02:13:56;10.60;;;7.53;;
54460;SDS011;40371;49.414;11.010;2023-02-23T02:16:35;7.27;;;6.43;;
54460;SDS011;40371;49.414;11.010;2023-02-23T02:30:39;7.87;;;6.87;;
54460;SDS011;40371;49.414;11.010;2023-02-23T02:41:42;8.83;;;7.13;;
54460;SDS011;40371;49.414;11.010;2023-02-23T02:45:02;10.37;;;7.17;;
54460;SDS011;40371;49.414;11.010;2023-02-23T02:47:49;10.43;;;7.80;;
54460;SDS011;40371;49.414;11.010;2023-02-23T02:53:33;9.80;;;7.50;;
54460;SDS011;40371;49.414;11.010;2023-02-23T02:56:05;9.70;;;7.43;;
54460;SDS011;40371;49.414;11.010;2023-02-23T02:58:35;11.50;;;7.63;;
54460;SDS011;40371;49.414;11.010;2023-02-23T03:01:06;10.60;;;8.33;;
54460;SDS011;40371;49.414;11.010;2023-02-23T03:03:55;9.10;;;8.00;;
54460;SDS011;40371;49.414;11.010;2023-02-23T03:06:58;10.70;;;7.60;;
54460;SDS011;40371;49.414;11.010;2023-02-23T03:12:39;10.33;;;9.10;;
54460;SDS011;40371;49.414;11.010;2023-02-23T03:16:08;9.53;;;7.77;;
54460;SDS011;40371;49.414;11.010;2023-02-23T03:22:27;11.13;;;8.07;;
54460;SDS011;40371;49.414;11.010;2023-02-23T03:25:23;8.17;;;7.30;;
54460;SDS011;40371;49.414;11.010;2023-02-23T03:28:31;9.90;;;8.13;;
54460;SDS011;40371;49.414;11.010;2023-02-23T03:31:29;9.83;;;8.80;;
54460;SDS011;40371;49.414;11.010;2023-02-23T03:34:27;8.63;;;7.73;;
54460;SDS011;40371;49.414;11.010;2023-02-23T03:37:26;8.67;;;7.77;;
54460;SDS011;40371;49.414;11.010;2023-02-23T03:40:35;12.63;;;8.93;;
54460;SDS011;40371;49.414;11.010;2023-02-23T03:43:24;10.17;;;7.83;;
54460;SDS011;40371;49.414;11.010;2023-02-23T03:46:16;9.60;;;7.87;;
54460;SDS011;40371;49.414;11.010;2023-02-23T03:49:04;9.43;;;7.70;;
54460;SDS011;40371;49.414;11.010;2023-02-23T03:51:54;10.93;;;7.77;;
54460;SDS011;40371;49.414;11.010;2023-02-23T03:54:46;8.77;;;7.20;;
54460;SDS011;40371;49.414;11.010;2023-02-23T03:57:36;9.27;;;7.90;;
54460;SDS011;40371;49.414;11.010;2023-02-23T04:00:26;11.67;;;8.70;;
54460;SDS011;40371;49.414;11.010;2023-02-23T04:03:14;11.20;;;7.87;;
54460;SDS011;40371;49.414;11.010;2023-02-23T04:06:00;9.53;;;7.93;;
54460;SDS011;40371;49.414;11.010;2023-02-23T04:08:45;11.57;;;8.37;;
54460;SDS011;40371;49.414;11.010;2023-02-23T04:11:43;14.87;;;7.60;;
54460;SDS011;40371;49.414;11.010;2023-02-23T04:14:38;10.07;;;7.53;;
54460;SDS011;40371;49.414;11.010;2023-02-23T04:17:09;9.20;;;7.70;;
54460;SDS011;40371;49.414;11.010;2023-02-23T04:19:37;8.40;;;7.50;;
54460;SDS011;40371;49.414;11.010;2023-02-23T04:22:02;10.83;;;8.17;;
54460;SDS011;40371;49.414;11.010;2023-02-23T04:24:28;9.00;;;7.93;;
54460;SDS011;40371;49.414;11.010;2023-02-23T04:26:53;8.03;;;7.23;;
54460;SDS011;40371;49.414;11.010;2023-02-23T04:29:19;9.60;;;8.30;;
54460;SDS011;40371;49.414;11.010;2023-02-23T04:31:44;10.27;;;8.97;;
54460;SDS011;40371;49.414;11.010;2023-02-23T04:34:11;11.30;;;8.17;;
54460;SDS011;40371;49.414;11.010;2023-02-23T04:36:36;9.60;;;7.60;;
54460;SDS011;40371;49.414;11.010;2023-02-23T04:39:02;15.20;;;8.57;;
54460;SDS011;40371;49.414;11.010;2023-02-23T04:41:28;8.97;;;8.03;;
54460;SDS011;40371;49.414;11.010;2023-02-23T04:43:53;10.20;;;9.03;;
54460;SDS011;40371;49.414;11.010;2023-02-23T04:46:19;12.53;;;9.50;;
54460;SDS011;40371;49.414;11.010;2023-02-23T04:48:44;12.03;;;9.27;;
54460;SDS011;40371;49.414;11.010;2023-02-23T04:51:10;9.93;;;8.77;;
54460;SDS011;40371;49.414;11.010;2023-02-23T04:53:36;11.60;;;8.57;;
54460;SDS011;40371;49.414;11.010;2023-02-23T04:56:02;12.03;;;8.40;;
54460;SDS011;40371;49.414;11.010;2023-02-23T04:58:28;10.27;;;8.70;;
54460;SDS011;40371;49.414;11.010;2023-02-23T05:00:53;10.57;;;8.77;;
54460;SDS011;40371;49.414;11.010;2023-02-23T05:03:19;10.87;;;8.30;;
54460;SDS011;40371;49.414;11.010;2023-02-23T05:05:44;12.83;;;8.30;;
54460;SDS011;40371;49.414;11.010;2023-02-23T05:08:10;8.97;;;8.00;;
54460;SDS011;40371;49.414;11.010;2023-02-23T05:10:36;11.20;;;9.03;;
54460;SDS011;40371;49.414;11.010;2023-02-23T05:13:01;14.40;;;8.97;;
54460;SDS011;40371;49.414;11.010;2023-02-23T05:15:27;8.93;;;7.80;;
54460;SDS011;40371;49.414;11.010;2023-02-23T05:17:53;10.23;;;9.13;;
54460;SDS011;40371;49.414;11.010;2023-02-23T05:20:20;10.67;;;9.03;;
54460;SDS011;40371;49.414;11.010;2023-02-23T05:22:45;10.90;;;9.20;;
54460;SDS011;40371;49.414;11.010;2023-02-23T05:25:11;13.50;;;9.47;;
54460;SDS011;40371;49.414;11.010;2023-02-23T05:27:37;10.93;;;9.30;;
54460;SDS011;40371;49.414;11.010;2023-02-23T05:30:04;11.57;;;9.47;;
54460;SDS011;40371;49.414;11.010;2023-02-23T05:32:32;10.47;;;9.40;;
54460;SDS011;40371;49.414;11.010;2023-02-23T05:34:59;12.63;;;9.83;;
54460;SDS011;40371;49.414;11.010;2023-02-23T05:37:26;11.50;;;9.73;;
54460;SDS011;40371;49.414;11.010;2023-02-23T05:39:52;12.63;;;10.13;;
54460;SDS011;40371;49.414;11.010;2023-02-23T05:42:17;12.00;;;10.70;;
54460;SDS011;40371;49.414;11.010;2023-02-23T05:44:43;13.90;;;10.40;;
54460;SDS011;40371;49.414;11.010;2023-02-23T05:47:09;12.60;;;10.23;;
54460;SDS011;40371;49.414;11.010;2023-02-23T05:49:35;12.30;;;11.00;;
54460;SDS011;40371;49.414;11.010;2023-02-23T05:52:00;14.37;;;11.40;;
54460;SDS011;40371;49.414;11.010;2023-02-23T05:54:26;13.53;;;11.57;;
54460;SDS011;40371;49.414;11.010;2023-02-23T05:56:52;13.43;;;11.50;;
54460;SDS011;40371;49.414;11.010;2023-02-23T05:59:17;13.43;;;12.00;;
54460;SDS011;40371;49.414;11.010;2023-02-23T06:01:43;17.20;;;12.47;;
54460;SDS011;40371;49.414;11.010;2023-02-23T06:04:08;17.13;;;11.03;;
54460;SDS011;40371;49.414;11.010;2023-02-23T06:06:34;13.70;;;11.50;;
54460;SDS011;40371;49.414;11.010;2023-02-23T06:09:00;13.33;;;11.17;;
54460;SDS011;40371;49.414;11.010;2023-02-23T06:11:27;13.13;;;10.83;;
54460;SDS011;40371;49.414;11.010;2023-02-23T06:13:53;16.73;;;11.63;;
54460;SDS011;40371;49.414;11.010;2023-02-23T06:16:19;12.23;;;10.30;;
54460;SDS011;40371;49.414;11.010;2023-02-23T06:18:45;14.27;;;12.13;;
54460;SDS011;40371;49.414;11.010;2023-02-23T06:21:11;13.37;;;11.57;;
54460;SDS011;40371;49.414;11.010;2023-02-23T06:23:36;13.17;;;11.27;;
54460;SDS011;40371;49.414;11.010;2023-02-23T06:26:02;15.27;;;11.80;;
54460;SDS011;40371;49.414;11.010;2023-02-23T06:28:28;13.57;;;11.23;;
54460;SDS011;40371;49.414;11.010;2023-02-23T06:30:54;14.90;;;11.07;;
54460;SDS011;40371;49.414;11.010;2023-02-23T06:33:20;14.00;;;11.90;;
54460;SDS011;40371;49.414;11.010;2023-02-23T06:35:46;13.53;;;12.00;;
54460;SDS011;40371;49.414;11.010;2023-02-23T06:38:12;15.23;;;11.83;;
54460;SDS011;40371;49.414;11.010;2023-02-23T06:40:38;19.23;;;12.80;;
54460;SDS011;40371;49.414;11.010;2023-02-23T06:43:04;16.30;;;12.10;;
54460;SDS011;40371;49.414;11.010;2023-02-23T06:45:30;13.27;;;11.67;;
54460;SDS011;40371;49.414;11.010;2023-02-23T06:47:57;14.50;;;12.13;;
54460;SDS011;40371;49.414;11.010;2023-02-23T06:50:23;15.40;;;13.73;;
54460;SDS011;40371;49.414;11.010;2023-02-23T06:52:48;15.97;;;12.70;;
54460;SDS011;40371;49.414;11.010;2023-02-23T06:55:14;16.93;;;13.07;;
54460;SDS011;40371;49.414;11.010;2023-02-23T06:57:40;17.23;;;13.17;;
54460;SDS011;40371;49.414;11.010;2023-02-23T07:00:06;14.07;;;12.13;;
54460;SDS011;40371;49.414;11.010;2023-02-23T07:02:32;16.50;;;13.93;;
54460;SDS011;40371;49.414;11.010;2023-02-23T07:05:00;15.77;;;14.00;;
54460;SDS011;40371;49.414;11.010;2023-02-23T07:07:26;16.83;;;13.63;;
54460;SDS011;40371;49.414;11.010;2023-02-23T07:09:51;17.83;;;13.20;;
54460;SDS011;40371;49.414;11.010;2023-02-23T07:12:17;16.73;;;13.53;;
54460;SDS011;40371;49.414;11.010;2023-02-23T07:14:43;16.10;;;13.80;;
54460;SDS011;40371;49.414;11.010;2023-02-23T07:17:08;15.97;;;13.10;;
54460;SDS011;40371;49.414;11.010;2023-02-23T07:19:34;17.10;;;13.37;;
54460;SDS011;40371;49.414;11.010;2023-02-23T07:21:59;17.90;;;14.27;;
54460;SDS011;40371;49.414;11.010;2023-02-23T07:24:25;17.20;;;14.13;;
54460;SDS011;40371;49.414;11.010;2023-02-23T07:26:52;15.63;;;13.83;;
54460;SDS011;40371;49.414;11.010;2023-02-23T07:29:17;16.63;;;13.30;;
54460;SDS011;40371;49.414;11.010;2023-02-23T07:31:44;17.90;;;14.60;;
54460;SDS011;40371;49.414;11.010;2023-02-23T07:34:10;18.10;;;14.93;;
54460;SDS011;40371;49.414;11.010;2023-02-23T07:36:35;18.30;;;14.43;;
54460;SDS011;40371;49.414;11.010;2023-02-23T07:39:02;19.00;;;15.40;;
54460;SDS011;40371;49.414;11.010;2023-02-23T07:41:28;17.93;;;15.87;;
54460;SDS011;40371;49.414;11.010;2023-02-23T07:43:54;17.77;;;15.27;;
54460;SDS011;40371;49.414;11.010;2023-02-23T07:46:20;17.20;;;15.40;;
54460;SDS011;40371;49.414;11.010;2023-02-23T07:48:45;19.40;;;16.30;;
54460;SDS011;40371;49.414;11.010;2023-02-23T07:51:12;19.43;;;14.67;;
54460;SDS011;40371;49.414;11.010;2023-02-23T07:53:39;20.37;;;16.20;;
54460;SDS011;40371;49.414;11.010;2023-02-23T07:56:05;21.50;;;16.07;;
54460;SDS011;40371;49.414;11.010;2023-02-23T07:58:34;19.70;;;16.37;;
54460;SDS011;40371;49.414;11.010;2023-02-23T08:00:59;18.83;;;16.40;;
54460;SDS011;40371;49.414;11.010;2023-02-23T08:03:26;20.77;;;16.13;;
54460;SDS011;40371;49.414;11.010;2023-02-23T08:05:51;20.90;;;16.13;;
54460;SDS011;40371;49.414;11.010;2023-02-23T08:08:17;20.40;;;16.33;;
54460;SDS011;40371;49.414;11.010;2023-02-23T08:10:43;18.30;;;16.40;;
54460;SDS011;40371;49.414;11.010;2023-02-23T08:13:08;24.50;;;18.27;;
54460;SDS011;40371;49.414;11.010;2023-02-23T08:15:34;20.53;;;17.30;;
54460;SDS011;40371;49.414;11.010;2023-02-23T08:17:59;24.20;;;18.17;;
54460;SDS011;40371;49.414;11.010;2023-02-23T08:20:25;25.10;;;18.20;;
54460;SDS011;40371;49.414;11.010;2023-02-23T08:22:55;21.67;;;18.10;;
54460;SDS011;40371;49.414;11.010;2023-02-23T08:25:21;21.87;;;17.27;;
54460;SDS011;40371;49.414;11.010;2023-02-23T08:27:47;21.77;;;17.47;;
54460;SDS011;40371;49.414;11.010;2023-02-23T08:30:18;23.07;;;18.00;;
54460;SDS011;40371;49.414;11.010;2023-02-23T08:32:45;22.50;;;17.20;;
54460;SDS011;40371;49.414;11.010;2023-02-23T08:35:11;23.63;;;19.30;;
54460;SDS011;40371;49.414;11.010;2023-02-23T08:37:37;26.43;;;18.93;;
54460;SDS011;40371;49.414;11.010;2023-02-23T08:40:03;25.43;;;19.60;;
54460;SDS011;40371;49.414;11.010;2023-02-23T08:42:29;25.43;;;19.17;;
54460;SDS011;40371;49.414;11.010;2023-02-23T08:44:54;22.70;;;18.27;;
54460;SDS011;40371;49.414;11.010;2023-02-23T08:47:20;23.97;;;19.17;;
54460;SDS011;40371;49.414;11.010;2023-02-23T08:49:50;24.13;;;18.40;;
54460;SDS011;40371;49.414;11.010;2023-02-23T08:52:18;24.07;;;19.13;;
54460;SDS011;40371;49.414;11.010;2023-02-23T08:54:44;21.33;;;19.03;;
54460;SDS011;40371;49.414;11.010;2023-02-23T08:57:10;25.20;;;20.20;;
54460;SDS011;40371;49.414;11.010;2023-02-23T08:59:36;26.13;;;19.77;;
54460;SDS011;40371;49.414;11.010;2023-02-23T09:02:03;28.37;;;20.67;;
54460;SDS011;40371;49.414;11.010;2023-02-23T09:04:30;23.07;;;19.63;;
54460;SDS011;40371;49.414;11.010;2023-02-23T09:06:59;23.97;;;20.03;;
54460;SDS011;40371;49.414;11.010;2023-02-23T09:09:25;28.47;;;20.43;;
54460;SDS011;40371;49.414;11.010;2023-02-23T09:11:51;23.40;;;20.17;;
54460;SDS011;40371;49.414;11.010;2023-02-23T09:14:17;25.97;;;20.57;;
54460;SDS011;40371;49.414;11.010;2023-02-23T09:16:42;24.10;;;21.40;;
54460;SDS011;40371;49.414;11.010;2023-02-23T09:19:09;27.23;;;22.50;;
54460;SDS011;40371;49.414;11.010;2023-02-23T09:21:35;25.17;;;21.57;;
54460;SDS011;40371;49.414;11.010;2023-02-23T09:24:00;27.20;;;22.60;;
54460;SDS011;40371;49.414;11.010;2023-02-23T09:26:26;133.13;;;111.27;;
54460;SDS011;40371;49.414;11.010;2023-02-23T09:28:53;67.63;;;53.93;;
54460;SDS011;40371;49.414;11.010;2023-02-23T09:31:20;29.13;;;23.40;;
54460;SDS011;40371;49.414;11.010;2023-02-23T09:33:47;28.50;;;21.13;;
54460;SDS011;40371;49.414;11.010;2023-02-23T09:36:21;26.63;;;20.17;;
54460;SDS011;40371;49.414;11.010;2023-02-23T09:38:49;24.70;;;21.27;;
54460;SDS011;40371;49.414;11.010;2023-02-23T09:43:58;25.33;;;20.90;;
54460;SDS011;40371;49.414;11.010;2023-02-23T09:46:32;26.20;;;21.90;;
54460;SDS011;40371;49.414;11.010;2023-02-23T09:49:07;25.30;;;21.40;;
54460;SDS011;40371;49.414;11.010;2023-02-23T09:51:40;24.57;;;20.93;;
54460;SDS011;40371;49.414;11.010;2023-02-23T09:54:11;33.63;;;22.00;;
54460;SDS011;40371;49.414;11.010;2023-02-23T09:56:42;27.60;;;22.37;;
54460;SDS011;40371;49.414;11.010;2023-02-23T09:59:12;27.70;;;20.87;;
54460;SDS011;40371;49.414;11.010;2023-02-23T10:04:17;27.77;;;22.63;;
54460;SDS011;40371;49.414;11.010;2023-02-23T10:09:40;26.20;;;21.10;;
54460;SDS011;40371;49.414;11.010;2023-02-23T10:12:09;27.90;;;21.53;;
54460;SDS011;40371;49.414;11.010;2023-02-23T10:17:34;24.97;;;21.90;;
54460;SDS011;40371;49.414;11.010;2023-02-23T10:22:33;26.20;;;20.03;;
54460;SDS011;40371;49.414;11.010;2023-02-23T10:25:10;27.37;;;21.93;;
54460;SDS011;40371;49.414;11.010;2023-02-23T10:27:40;25.73;;;20.43;;
54460;SDS011;40371;49.414;11.010;2023-02-23T10:30:18;24.63;;;20.80;;
54460;SDS011;40371;49.414;11.010;2023-02-23T10:35:54;26.10;;;21.47;;
54460;SDS011;40371;49.414;11.010;2023-02-23T10:38:24;25.40;;;22.27;;
54460;SDS011;40371;49.414;11.010;2023-02-23T10:40:52;25.30;;;21.67;;
54460;SDS011;40371;49.414;11.010;2023-02-23T10:43:20;25.00;;;20.43;;
54460;SDS011;40371;49.414;11.010;2023-02-23T10:45:47;23.97;;;20.87;;
54460;SDS011;40371;49.414;11.010;2023-02-23T10:48:19;24.23;;;20.00;;
54460;SDS011;40371;49.414;11.010;2023-02-23T10:50:48;58.23;;;48.70;;
54460;SDS011;40371;49.414;11.010;2023-02-23T10:56:01;34.27;;;27.43;;
54460;SDS011;40371;49.414;11.010;2023-02-23T10:58:30;37.13;;;31.50;;
54460;SDS011;40371;49.414;11.010;2023-02-23T11:01:05;43.50;;;35.57;;
54460;SDS011;40371;49.414;11.010;2023-02-23T11:03:35;34.47;;;29.43;;
54460;SDS011;40371;49.414;11.010;2023-02-23T11:08:54;30.03;;;23.93;;
54460;SDS011;40371;49.414;11.010;2023-02-23T11:11:26;28.67;;;23.90;;
54460;SDS011;40371;49.414;11.010;2023-02-23T11:13:53;28.93;;;23.40;;
54460;SDS011;40371;49.414;11.010;2023-02-23T11:18:52;23.60;;;18.77;;
54460;SDS011;40371;49.414;11.010;2023-02-23T11:21:21;19.33;;;17.13;;
54460;SDS011;40371;49.414;11.010;2023-02-23T11:23:50;23.07;;;18.07;;
54460;SDS011;40371;49.414;11.010;2023-02-23T11:29:22;30.60;;;26.43;;
54460;SDS011;40371;49.414;11.010;2023-02-23T11:31:59;35.43;;;30.47;;
54460;SDS011;40371;49.414;11.010;2023-02-23T11:34:47;29.90;;;23.50;;
54460;SDS011;40371;49.414;11.010;2023-02-23T11:37:38;20.50;;;17.20;;
54460;SDS011;40371;49.414;11.010;2023-02-23T11:40:16;25.17;;;21.73;;
54460;SDS011;40371;49.414;11.010;2023-02-23T11:45:31;30.57;;;24.70;;
54460;SDS011;40371;49.414;11.010;2023-02-23T11:48:03;29.40;;;21.97;;
54460;SDS011;40371;49.414;11.010;2023-02-23T11:50:33;25.63;;;20.40;;
54460;SDS011;40371;49.414;11.010;2023-02-23T11:53:04;22.17;;;18.90;;
54460;SDS011;40371;49.414;11.010;2023-02-23T11:55:37;25.20;;;20.73;;
54460;SDS011;40371;49.414;11.010;2023-02-23T11:58:07;18.77;;;16.77;;
54460;SDS011;40371;49.414;11.010;2023-02-23T12:00:57;22.43;;;18.30;;
54460;SDS011;40371;49.414;11.010;2023-02-23T12:03:25;21.80;;;17.30;;
54460;SDS011;40371;49.414;11.010;2023-02-23T12:05:54;19.73;;;15.70;;
54460;SDS011;40371;49.414;11.010;2023-02-23T12:08:30;19.67;;;16.20;;
54460;SDS011;40371;49.414;11.010;2023-02-23T12:10:58;18.37;;;15.13;;
54460;SDS011;40371;49.414;11.010;2023-02-23T12:13:27;14.67;;;13.17;;
54460;SDS011;40371;49.414;11.010;2023-02-23T12:23:48;14.57;;;12.37;;
54460;SDS011;40371;49.414;11.010;2023-02-23T12:26:19;17.97;;;13.47;;
54460;SDS011;40371;49.414;11.010;2023-02-23T12:31:20;13.30;;;11.93;;
54460;SDS011;40371;49.414;11.010;2023-02-23T12:34:03;16.37;;;13.20;;
54460;SDS011;40371;49.414;11.010;2023-02-23T12:36:39;14.77;;;13.07;;
54460;SDS011;40371;49.414;11.010;2023-02-23T12:39:30;15.50;;;12.07;;
54460;SDS011;40371;49.414;11.010;2023-02-23T12:42:13;12.90;;;11.57;;
54460;SDS011;40371;49.414;11.010;2023-02-23T12:45:00;17.27;;;12.27;;
54460;SDS011;40371;49.414;11.010;2023-02-23T12:47:34;14.60;;;13.10;;
54460;SDS011;40371;49.414;11.010;2023-02-23T12:50:10;15.43;;;11.77;;
54460;SDS011;40371;49.414;11.010;2023-02-23T12:52:50;15.53;;;12.53;;
54460;SDS011;40371;49.414;11.010;2023-02-23T12:55:35;13.63;;;11.17;;
54460;SDS011;40371;49.414;11.010;2023-02-23T13:01:15;15.10;;;12.00;;
54460;SDS011;40371;49.414;11.010;2023-02-23T13:07:17;11.93;;;10.73;;
54460;SDS011;40371;49.414;11.010;2023-02-23T13:21:01;10.77;;;9.47;;
54460;SDS011;40371;49.414;11.010;2023-02-23T13:24:22;12.33;;;10.93;;
54460;SDS011;40371;49.414;11.010;2023-02-23T13:31:58;11.67;;;10.23;;
54460;SDS011;40371;49.414;11.010;2023-02-23T13:34:26;13.30;;;10.97;;
54460;SDS011;40371;49.414;11.010;2023-02-23T13:36:55;14.10;;;11.03;;
54460;SDS011;40371;49.414;11.010;2023-02-23T13:39:42;13.90;;;11.17;;
54460;SDS011;40371;49.414;11.010;2023-02-23T13:42:23;11.30;;;10.10;;
54460;SDS011;40371;49.414;11.010;2023-02-23T13:47:46;11.03;;;9.47;;
54460;SDS011;40371;49.414;11.010;2023-02-23T13:53:00;10.43;;;9.43;;
54460;SDS011;40371;49.414;11.010;2023-02-23T13:55:46;11.00;;;9.43;;
54460;SDS011;40371;49.414;11.010;2023-02-23T13:58:14;9.80;;;8.23;;
54460;SDS011;40371;49.414;11.010;2023-02-23T14:01:02;8.37;;;7.50;;
54460;SDS011;40371;49.414;11.010;2023-02-23T14:03:29;10.70;;;9.60;;
54460;SDS011;40371;49.414;11.010;2023-02-23T14:05:59;11.77;;;9.23;;
54460;SDS011;40371;49.414;11.010;2023-02-23T14:08:27;10.20;;;9.10;;
54460;SDS011;40371;49.414;11.010;2023-02-23T14:10:58;11.17;;;8.93;;
54460;SDS011;40371;49.414;11.010;2023-02-23T14:13:26;9.70;;;8.67;;
54460;SDS011;40371;49.414;11.010;2023-02-23T14:18:49;10.53;;;9.43;;
54460;SDS011;40371;49.414;11.010;2023-02-23T14:21:34;11.43;;;10.23;;
54460;SDS011;40371;49.414;11.010;2023-02-23T14:24:15;12.50;;;10.43;;
54460;SDS011;40371;49.414;11.010;2023-02-23T14:26:46;11.40;;;10.20;;
54460;SDS011;40371;49.414;11.010;2023-02-23T14:29:39;11.50;;;10.30;;
54460;SDS011;40371;49.414;11.010;2023-02-23T14:37:19;16.50;;;11.83;;
54460;SDS011;40371;49.414;11.010;2023-02-23T14:39:59;14.30;;;12.80;;
54460;SDS011;40371;49.414;11.010;2023-02-23T14:42:38;13.03;;;11.70;;
54460;SDS011;40371;49.414;11.010;2023-02-23T14:45:11;15.53;;;12.17;;
54460;SDS011;40371;49.414;11.010;2023-02-23T14:47:54;14.80;;;12.13;;
54460;SDS011;40371;49.414;11.010;2023-02-23T14:50:23;14.90;;;11.07;;
54460;SDS011;40371;49.414;11.010;2023-02-23T14:52:52;14.03;;;11.73;;
54460;SDS011;40371;49.414;11.010;2023-02-23T14:55:24;18.23;;;12.33;;
54460;SDS011;40371;49.414;11.010;2023-02-23T14:57:51;13.93;;;12.23;;
54460;SDS011;40371;49.414;11.010;2023-02-23T15:00:40;14.67;;;12.77;;
54460;SDS011;40371;49.414;11.010;2023-02-23T15:03:07;14.30;;;12.53;;
54460;SDS011;40371;49.414;11.010;2023-02-23T15:05:43;15.40;;;13.13;;
54460;SDS011;40371;49.414;11.010;2023-02-23T15:08:13;19.03;;;13.97;;
54460;SDS011;40371;49.414;11.010;2023-02-23T15:10:42;14.63;;;12.57;;
54460;SDS011;40371;49.414;11.010;2023-02-23T15:13:11;14.10;;;12.50;;
54460;SDS011;40371;49.414;11.010;2023-02-23T15:15:52;14.47;;;12.90;;
54460;SDS011;40371;49.414;11.010;2023-02-23T15:21:54;17.27;;;12.90;;
54460;SDS011;40371;49.414;11.010;2023-02-23T15:24:22;14.70;;;13.10;;
54460;SDS011;40371;49.414;11.010;2023-02-23T15:26:52;17.93;;;12.60;;
54460;SDS011;40371;49.414;11.010;2023-02-23T15:29:22;18.43;;;12.77;;
54460;SDS011;40371;49.414;11.010;2023-02-23T15:31:51;14.83;;;12.70;;
54460;SDS011;40371;49.414;11.010;2023-02-23T15:34:19;16.10;;;13.37;;
54460;SDS011;40371;49.414;11.010;2023-02-23T15:36:51;15.50;;;13.03;;
54460;SDS011;40371;49.414;11.010;2023-02-23T15:39:27;14.30;;;12.50;;
54460;SDS011;40371;49.414;11.010;2023-02-23T15:41:58;15.17;;;12.43;;
54460;SDS011;40371;49.414;11.010;2023-02-23T15:44:25;14.60;;;12.20;;
54460;SDS011;40371;49.414;11.010;2023-02-23T15:46:54;15.53;;;12.73;;
54460;SDS011;40371;49.414;11.010;2023-02-23T15:49:24;14.57;;;12.73;;
54460;SDS011;40371;49.414;11.010;2023-02-23T15:52:35;15.53;;;13.13;;
54460;SDS011;40371;49.414;11.010;2023-02-23T15:55:07;15.43;;;12.87;;
54460;SDS011;40371;49.414;11.010;2023-02-23T15:57:42;16.43;;;13.00;;
54460;SDS011;40371;49.414;11.010;2023-02-23T16:00:15;13.03;;;11.67;;
54460;SDS011;40371;49.414;11.010;2023-02-23T16:02:51;14.70;;;13.10;;
54460;SDS011;40371;49.414;11.010;2023-02-23T16:05:21;14.00;;;12.43;;
54460;SDS011;40371;49.414;11.010;2023-02-23T16:07:48;14.03;;;12.33;;
54460;SDS011;40371;49.414;11.010;2023-02-23T16:13:41;14.97;;;13.43;;
54460;SDS011;40371;49.414;11.010;2023-02-23T16:16:08;16.83;;;12.83;;
54460;SDS011;40371;49.414;11.010;2023-02-23T16:18:43;14.17;;;12.67;;
54460;SDS011;40371;49.414;11.010;2023-02-23T16:21:13;18.83;;;14.83;;
54460;SDS011;40371;49.414;11.010;2023-02-23T16:23:43;18.70;;;16.17;;
54460;SDS011;40371;49.414;11.010;2023-02-23T16:26:28;15.57;;;12.63;;
54460;SDS011;40371;49.414;11.010;2023-02-23T16:28:59;14.40;;;12.43;;
54460;SDS011;40371;49.414;11.010;2023-02-23T16:31:46;13.90;;;10.60;;
54460;SDS011;40371;49.414;11.010;2023-02-23T16:36:50;10.03;;;8.87;;
54460;SDS011;40371;49.414;11.010;2023-02-23T16:39:20;10.83;;;9.63;;
54460;SDS011;40371;49.414;11.010;2023-02-23T16:41:49;12.50;;;9.47;;